Time;durP1;ratioP1;P1;durP2;ratioP2;P2;SDS_P1;SDS_P2;PMS_P1;PMS_P2;Temp;Humidity;BMP_temperature;BMP_pressure;BME280_temperature;BME280_humidity;BME280_pressure;Samples;Min_cycle;Max_cycle;Signal;HPM_P1;HPM_P2
2023/12/02 00:01:20;;;;;;;12.18;8.02;;;3.00;77.60;;;;;;5031002;28;20040;-75
2023/12/02 00:03:46;;;;;;;14.98;9.52;;;3.00;77.70;;;;;;5033185;28;20038;-74
2023/12/02 00:06:12;;;;;;;14.45;9.23;;;3.00;77.70;;;;;;5032974;28;20036;-74
2023/12/02 00:08:37;;;;;;;12.60;8.05;;;3.00;77.70;;;;;;5034307;28;20443;-75
2023/12/02 00:11:03;;;;;;;13.05;8.68;;;3.00;77.70;;;;;;5016065;28;20034;-74
2023/12/02 00:13:29;;;;;;;12.75;8.32;;;3.00;77.70;;;;;;5010578;28;20076;-74
2023/12/02 00:15:55;;;;;;;13.95;9.02;;;3.10;77.70;;;;;;5015893;28;20518;-75
2023/12/02 00:18:20;;;;;;;12.70;8.15;;;3.00;77.60;;;;;;5031916;28;20045;-74
2023/12/02 00:20:46;;;;;;;13.23;8.70;;;3.00;77.60;;;;;;5014848;28;20042;-74
2023/12/02 00:23:12;;;;;;;13.80;8.65;;;3.00;77.70;;;;;;5027834;28;20409;-74
2023/12/02 00:25:37;;;;;;;13.43;8.75;;;3.00;77.60;;;;;;5007037;28;20032;-75
2023/12/02 00:28:03;;;;;;;15.18;9.43;;;3.00;77.70;;;;;;5010582;28;20022;-74
2023/12/02 00:30:29;;;;;;;13.95;8.77;;;3.00;77.70;;;;;;5046782;28;20617;-74
2023/12/02 00:32:54;;;;;;;13.25;7.97;;;3.00;77.70;;;;;;5024946;28;20485;-74
2023/12/02 00:35:20;;;;;;;14.00;8.68;;;3.00;77.70;;;;;;5017734;28;20096;-74
2023/12/02 00:37:46;;;;;;;13.75;9.13;;;3.00;77.70;;;;;;5024788;28;20116;-74
2023/12/02 00:40:12;;;;;;;15.18;9.32;;;3.00;77.70;;;;;;5029664;28;20034;-74
2023/12/02 00:42:37;;;;;;;13.60;8.98;;;3.00;77.70;;;;;;5028371;28;20037;-75
2023/12/02 00:45:03;;;;;;;14.23;8.90;;;3.00;77.70;;;;;;5058396;28;20552;-74
2023/12/02 00:47:29;;;;;;;11.52;7.85;;;3.00;77.70;;;;;;5014060;28;20049;-74
2023/12/02 00:49:55;;;;;;;12.07;7.57;;;3.00;77.70;;;;;;5024509;28;20690;-74
2023/12/02 00:52:21;;;;;;;12.88;8.77;;;3.00;77.70;;;;;;5015690;28;20029;-74
2023/12/02 00:54:46;;;;;;;13.80;8.75;;;3.00;77.70;;;;;;5016009;28;20413;-75
2023/12/02 00:57:12;;;;;;;14.32;9.07;;;3.00;77.70;;;;;;5021007;28;20041;-75
2023/12/02 00:59:38;;;;;;;13.32;8.35;;;3.00;77.60;;;;;;5036084;28;20058;-75
2023/12/02 01:02:04;;;;;;;13.27;8.32;;;3.00;77.60;;;;;;5046679;28;20073;-74
2023/12/02 01:04:30;;;;;;;13.00;8.57;;;3.00;77.60;;;;;;5020115;28;20532;-74
2023/12/02 01:06:56;;;;;;;13.93;8.90;;;3.00;77.60;;;;;;5013768;28;20060;-75
2023/12/02 01:09:21;;;;;;;15.18;8.88;;;3.00;77.70;;;;;;5023124;28;20034;-74
2023/12/02 01:11:47;;;;;;;12.68;8.30;;;3.00;77.70;;;;;;5040581;28;20053;-74
2023/12/02 01:14:13;;;;;;;14.48;8.88;;;3.00;77.70;;;;;;5027618;28;20103;-74
2023/12/02 01:16:38;;;;;;;12.70;7.90;;;3.00;77.70;;;;;;5023563;28;20118;-74
2023/12/02 01:19:04;;;;;;;12.13;7.72;;;3.00;77.70;;;;;;5020847;28;20050;-74
2023/12/02 01:21:30;;;;;;;12.55;8.57;;;3.00;77.70;;;;;;5024384;28;20040;-74
2023/12/02 01:23:56;;;;;;;13.38;8.27;;;3.00;77.70;;;;;;5011744;28;20057;-74
2023/12/02 01:26:23;;;;;;;12.88;8.00;;;3.00;77.70;;;;;;5013432;28;20479;-74
2023/12/02 01:28:49;;;;;;;12.27;8.07;;;3.00;77.70;;;;;;5015166;28;20041;-74
2023/12/02 01:31:14;;;;;;;13.57;8.35;;;3.00;77.60;;;;;;5025745;28;20026;-74
2023/12/02 01:33:40;;;;;;;12.48;8.30;;;3.00;77.60;;;;;;5026851;28;20037;-74
2023/12/02 01:36:11;;;;;;;13.68;8.40;;;3.00;77.60;;;;;;5008649;28;20041;-74
2023/12/02 01:38:37;;;;;;;11.90;7.93;;;3.00;77.70;;;;;;5030196;28;20488;-74
2023/12/02 01:41:03;;;;;;;14.63;8.93;;;3.00;77.70;;;;;;5014837;28;20030;-74
2023/12/02 01:43:28;;;;;;;14.80;9.13;;;3.00;77.70;;;;;;5027803;28;20037;-74
2023/12/02 01:45:55;;;;;;;13.32;8.52;;;3.00;77.70;;;;;;5012064;28;20034;-74
2023/12/02 01:48:23;;;;;;;13.90;8.43;;;3.00;77.70;;;;;;5031017;28;20036;-74
2023/12/02 01:50:49;;;;;;;14.45;8.43;;;3.00;77.70;;;;;;5020558;28;20029;-75
2023/12/02 01:53:15;;;;;;;12.45;8.05;;;3.00;77.70;;;;;;5034200;28;20544;-74
2023/12/02 01:55:42;;;;;;;13.25;7.85;;;3.00;77.70;;;;;;5026291;28;20033;-74
2023/12/02 01:58:08;;;;;;;12.57;8.50;;;3.00;77.70;;;;;;5029797;28;20026;-74
2023/12/02 02:00:34;;;;;;;12.20;8.32;;;3.00;77.70;;;;;;5030490;28;20533;-74
2023/12/02 02:03:00;;;;;;;12.98;7.97;;;3.00;77.70;;;;;;5030049;28;20037;-75
2023/12/02 02:05:25;;;;;;;12.13;7.70;;;3.00;77.70;;;;;;5011638;28;20485;-74
2023/12/02 02:07:51;;;;;;;13.38;8.23;;;2.90;77.60;;;;;;5024060;28;20116;-75
2023/12/02 02:10:20;;;;;;;13.15;8.60;;;3.00;77.70;;;;;;5025476;28;20030;-75
2023/12/02 02:12:46;;;;;;;13.07;8.27;;;3.00;77.70;;;;;;5029722;28;20064;-75
2023/12/02 02:15:12;;;;;;;13.73;8.27;;;3.00;78.30;;;;;;5027872;28;20025;-75
2023/12/02 02:17:38;;;;;;;12.93;8.50;;;3.00;77.70;;;;;;5024808;28;20030;-74
2023/12/02 02:20:04;;;;;;;12.55;8.75;;;3.00;77.80;;;;;;4994764;28;20034;-74
2023/12/02 02:22:30;;;;;;;12.95;8.32;;;3.00;77.70;;;;;;5011027;28;20060;-75
2023/12/02 02:24:56;;;;;;;12.10;8.13;;;2.90;77.60;;;;;;4992637;28;20413;-75
2023/12/02 02:27:22;;;;;;;12.52;7.82;;;3.00;77.70;;;;;;5028340;28;20069;-75
2023/12/02 02:29:47;;;;;;;13.43;8.82;;;3.00;77.60;;;;;;5027288;28;20155;-75
2023/12/02 02:32:13;;;;;;;13.65;8.48;;;3.00;77.70;;;;;;5045503;28;20386;-75
2023/12/02 02:34:42;;;;;;;13.30;8.18;;;2.90;77.60;;;;;;5013164;28;20037;-75
2023/12/02 02:37:09;;;;;;;12.05;8.60;;;3.00;77.70;;;;;;5025226;28;20029;-75
2023/12/02 02:39:35;;;;;;;12.32;7.68;;;3.00;77.60;;;;;;5028044;28;20034;-75
2023/12/02 02:42:05;;;;;;;13.98;8.63;;;3.00;77.70;;;;;;5026613;28;20112;-75
2023/12/02 02:44:40;;;;;;;11.45;7.60;;;2.90;77.60;;;;;;5024499;28;20029;-74
2023/12/02 02:47:06;;;;;;;14.85;9.55;;;3.00;77.70;;;;;;5024041;28;20536;-74
2023/12/02 02:49:32;;;;;;;11.63;7.50;;;2.90;77.60;;;;;;5027434;28;20462;-74
2023/12/02 02:51:57;;;;;;;12.60;7.75;;;2.90;77.60;;;;;;5024085;28;20029;-74
2023/12/02 02:54:23;;;;;;;13.10;8.23;;;3.00;77.60;;;;;;5029405;28;20049;-75
2023/12/02 02:56:50;;;;;;;12.50;8.30;;;3.00;78.20;;;;;;5019533;28;20049;-75
2023/12/02 02:59:16;;;;;;;11.63;7.85;;;2.90;77.60;;;;;;5026456;28;20116;-76
2023/12/02 03:01:45;;;;;;;12.15;7.97;;;3.00;77.60;;;;;;5022414;28;20041;-75
2023/12/02 03:04:11;;;;;;;13.20;8.10;;;3.00;77.70;;;;;;5011202;28;20397;-74
2023/12/02 03:06:36;;;;;;;11.73;7.97;;;3.00;77.70;;;;;;5035531;28;20033;-75
2023/12/02 03:09:05;;;;;;;12.70;7.68;;;3.00;77.70;;;;;;5027735;28;20048;-75
2023/12/02 03:11:32;;;;;;;13.82;8.52;;;2.90;77.60;;;;;;5027789;28;20065;-74
2023/12/02 03:13:58;;;;;;;11.93;7.63;;;2.90;77.60;;;;;;5027373;28;20056;-75
2023/12/02 03:16:24;;;;;;;13.10;8.23;;;2.90;77.70;;;;;;5025273;28;20033;-74
2023/12/02 03:18:49;;;;;;;11.43;7.57;;;2.90;77.60;;;;;;5006808;28;20393;-75
2023/12/02 03:21:15;;;;;;;11.82;8.05;;;3.00;77.70;;;;;;5024440;28;20080;-75
2023/12/02 03:23:41;;;;;;;11.00;7.90;;;3.00;77.70;;;;;;5025099;28;20472;-74
2023/12/02 03:26:07;;;;;;;11.80;7.40;;;2.90;77.60;;;;;;5020673;28;20088;-75
2023/12/02 03:28:33;;;;;;;13.43;8.73;;;2.90;77.60;;;;;;4992900;28;20029;-74
2023/12/02 03:31:00;;;;;;;12.50;7.82;;;2.90;77.60;;;;;;5024301;28;20500;-74
2023/12/02 03:33:26;;;;;;;12.25;7.90;;;2.90;77.60;;;;;;5024623;28;20068;-75
2023/12/02 03:35:52;;;;;;;12.50;8.13;;;2.90;77.60;;;;;;5031032;28;20029;-75
2023/12/02 03:38:18;;;;;;;12.00;7.53;;;2.90;77.60;;;;;;5008385;28;20413;-74
2023/12/02 03:40:43;;;;;;;13.00;8.27;;;2.90;77.60;;;;;;5027649;28;20382;-74
2023/12/02 03:43:09;;;;;;;12.70;8.05;;;2.90;77.60;;;;;;5013572;28;20037;-74
2023/12/02 03:45:35;;;;;;;10.88;7.85;;;2.90;77.60;;;;;;5031875;28;20061;-74
2023/12/02 03:48:01;;;;;;;12.20;7.45;;;2.90;77.60;;;;;;5015133;28;20030;-74
2023/12/02 03:50:26;;;;;;;12.82;8.43;;;2.90;77.60;;;;;;5024933;28;20528;-75
2023/12/02 03:52:52;;;;;;;11.18;7.03;;;2.90;77.60;;;;;;5032350;28;20462;-75
2023/12/02 03:55:20;;;;;;;11.70;7.82;;;2.90;77.60;;;;;;5025720;28;20486;-75
2023/12/02 03:57:46;;;;;;;11.93;7.72;;;2.90;77.60;;;;;;5005723;28;20482;-74
2023/12/02 04:00:15;;;;;;;13.10;8.30;;;2.90;77.60;;;;;;5033097;28;20044;-74
2023/12/02 04:02:41;;;;;;;11.57;7.63;;;2.90;77.60;;;;;;5012642;28;20040;-74
2023/12/02 04:05:08;;;;;;;12.60;7.50;;;2.90;77.60;;;;;;5045052;28;20145;-75
2023/12/02 04:07:35;;;;;;;12.18;7.63;;;2.90;77.60;;;;;;5037491;28;20025;-75
2023/12/02 04:10:02;;;;;;;11.55;7.85;;;2.90;77.60;;;;;;5025584;28;20083;-75
2023/12/02 04:12:29;;;;;;;11.43;7.55;;;2.90;77.60;;;;;;5027050;28;20052;-75
2023/12/02 04:14:56;;;;;;;12.32;7.78;;;2.90;77.60;;;;;;5021062;28;20042;-75
2023/12/02 04:17:21;;;;;;;11.82;7.90;;;2.90;77.60;;;;;;5024119;28;20026;-75
2023/12/02 04:19:47;;;;;;;13.88;8.60;;;2.90;77.60;;;;;;5030483;28;20167;-74
2023/12/02 04:22:14;;;;;;;13.15;7.82;;;2.90;77.60;;;;;;5024549;28;20084;-74
2023/12/02 04:24:40;;;;;;;12.65;8.10;;;2.90;77.60;;;;;;5030748;28;20032;-74
2023/12/02 04:27:07;;;;;;;13.23;7.93;;;2.90;77.60;;;;;;5023108;28;20033;-75
2023/12/02 04:29:36;;;;;;;11.50;7.38;;;2.90;77.60;;;;;;5025903;28;20034;-74
2023/12/02 04:32:03;;;;;;;14.40;8.48;;;2.90;77.60;;;;;;5021789;28;20113;-75
2023/12/02 04:34:30;;;;;;;12.90;7.95;;;2.90;77.60;;;;;;5030476;28;20045;-75
2023/12/02 04:36:56;;;;;;;12.43;7.85;;;2.90;77.60;;;;;;5025255;28;20033;-75
2023/12/02 04:39:22;;;;;;;11.77;7.38;;;2.90;77.60;;;;;;5014832;28;20092;-75
2023/12/02 04:41:47;;;;;;;13.82;8.40;;;2.90;77.60;;;;;;5020620;28;20425;-74
2023/12/02 04:44:13;;;;;;;13.05;8.40;;;2.90;77.60;;;;;;5020579;28;20469;-74
2023/12/02 04:46:42;;;;;;;13.75;8.77;;;2.90;77.60;;;;;;5029266;28;20033;-74
2023/12/02 04:49:08;;;;;;;13.57;8.02;;;2.90;77.60;;;;;;5031921;28;20381;-74
2023/12/02 04:51:34;;;;;;;12.70;8.00;;;2.90;77.60;;;;;;5029238;28;20124;-75
2023/12/02 04:53:59;;;;;;;11.75;8.07;;;2.90;77.60;;;;;;5030658;28;20061;-75
2023/12/02 04:56:25;;;;;;;13.15;8.10;;;2.90;77.60;;;;;;5029822;28;20040;-75
2023/12/02 04:58:51;;;;;;;12.75;7.88;;;2.90;77.60;;;;;;5050888;28;20030;-74
2023/12/02 05:01:17;;;;;;;12.27;8.30;;;2.80;77.60;;;;;;5029397;28;20824;-74
2023/12/02 05:03:43;;;;;;;12.73;7.72;;;2.90;77.70;;;;;;5030309;28;20397;-75
2023/12/02 05:06:14;;;;;;;12.13;7.88;;;2.80;77.60;;;;;;5031648;28;20030;-74
2023/12/02 05:08:40;;;;;;;12.15;7.78;;;2.80;77.60;;;;;;5026783;28;20486;-75
2023/12/02 05:11:06;;;;;;;11.93;7.55;;;2.80;77.60;;;;;;5030309;28;20088;-75
2023/12/02 05:13:32;;;;;;;12.07;7.78;;;2.80;77.60;;;;;;5022759;28;20064;-74
2023/12/02 05:15:57;;;;;;;12.82;8.15;;;2.80;77.60;;;;;;5012504;28;20034;-75
2023/12/02 05:18:23;;;;;;;12.80;7.88;;;2.80;77.60;;;;;;5025125;28;20510;-75
2023/12/02 05:20:49;;;;;;;12.63;7.40;;;2.80;77.60;;;;;;5014482;28;20033;-75
2023/12/02 05:23:15;;;;;;;12.02;7.72;;;2.80;77.60;;;;;;5024251;28;20052;-74
2023/12/02 05:25:41;;;;;;;12.38;8.25;;;2.80;77.60;;;;;;5031475;28;20102;-75
2023/12/02 05:28:07;;;;;;;12.98;8.57;;;2.80;77.60;;;;;;5026113;28;20530;-75
2023/12/02 05:30:35;;;;;;;11.85;7.85;;;2.80;77.60;;;;;;5025764;28;20121;-75
2023/12/02 05:33:01;;;;;;;12.25;7.22;;;2.80;77.60;;;;;;5020211;28;20038;-75
2023/12/02 05:35:27;;;;;;;13.70;8.63;;;2.80;77.60;;;;;;5015165;28;20079;-75
2023/12/02 05:37:53;;;;;;;12.18;8.20;;;2.70;77.50;;;;;;5026829;28;20148;-75
2023/12/02 05:40:18;;;;;;;13.10;8.10;;;2.80;77.60;;;;;;5021337;28;20037;-74
2023/12/02 05:42:44;;;;;;;13.43;7.88;;;2.80;77.60;;;;;;5010230;28;20040;-75
2023/12/02 05:45:10;;;;;;;15.20;9.10;;;2.80;77.70;;;;;;5031915;28;20044;-74
2023/12/02 05:47:36;;;;;;;12.25;8.07;;;2.70;77.60;;;;;;5010933;28;20034;-75
2023/12/02 05:50:02;;;;;;;13.02;8.02;;;2.80;77.60;;;;;;5022882;28;20473;-75
2023/12/02 05:52:28;;;;;;;13.45;7.88;;;2.80;77.60;;;;;;5027109;28;20493;-74
2023/12/02 05:54:55;;;;;;;12.40;7.88;;;2.80;77.60;;;;;;5019492;28;20077;-74
2023/12/02 05:57:21;;;;;;;11.32;7.50;;;2.70;77.50;;;;;;5030846;28;20052;-75
2023/12/02 05:59:46;;;;;;;13.23;8.38;;;2.80;77.60;;;;;;5022356;28;20029;-75
2023/12/02 06:02:12;;;;;;;13.50;7.72;;;2.80;77.60;;;;;;5010892;28;20057;-74
2023/12/02 06:04:38;;;;;;;13.43;8.32;;;2.80;77.60;;;;;;5007716;28;20030;-74
2023/12/02 06:07:03;;;;;;;12.57;8.05;;;2.80;77.70;;;;;;5020416;28;20037;-75
2023/12/02 06:09:29;;;;;;;12.27;8.00;;;2.70;77.60;;;;;;5026045;28;20038;-74
2023/12/02 06:11:55;;;;;;;12.95;8.38;;;2.80;77.60;;;;;;5018035;28;20041;-74
2023/12/02 06:14:21;;;;;;;13.23;8.25;;;2.70;77.50;;;;;;5028193;28;20510;-74
2023/12/02 06:16:46;;;;;;;12.82;8.10;;;2.80;77.60;;;;;;5019591;28;20482;-74
2023/12/02 06:19:12;;;;;;;13.05;8.27;;;2.80;77.60;;;;;;5023421;28;20069;-74
2023/12/02 06:21:38;;;;;;;13.25;8.68;;;2.80;77.60;;;;;;5021597;28;20030;-75
2023/12/02 06:24:04;;;;;;;13.45;8.13;;;2.70;77.50;;;;;;5009026;28;20053;-75
2023/12/02 06:26:30;;;;;;;13.27;8.32;;;2.70;77.50;;;;;;5015223;28;20075;-75
2023/12/02 06:28:55;;;;;;;12.98;8.23;;;2.70;77.50;;;;;;5042438;28;20033;-75
2023/12/02 06:31:21;;;;;;;11.45;7.53;;;2.70;77.60;;;;;;5024559;28;20021;-75
2023/12/02 06:33:47;;;;;;;12.40;8.05;;;2.80;77.60;;;;;;5022605;28;20052;-75
2023/12/02 06:36:13;;;;;;;11.13;7.10;;;2.80;77.60;;;;;;5017945;28;20085;-76
2023/12/02 06:38:38;;;;;;;12.88;7.90;;;2.70;77.50;;;;;;5019443;28;20164;-76
2023/12/02 06:41:04;;;;;;;13.93;8.73;;;2.70;77.50;;;;;;5013445;28;20086;-74
2023/12/02 06:43:30;;;;;;;12.48;7.72;;;2.70;77.50;;;;;;5012802;28;20086;-74
2023/12/02 06:45:56;;;;;;;11.82;7.75;;;2.70;77.50;;;;;;5009682;28;20029;-75
2023/12/02 06:48:22;;;;;;;13.07;8.48;;;2.80;77.60;;;;;;5025410;28;20121;-75
2023/12/02 06:50:48;;;;;;;14.45;8.52;;;2.70;77.50;;;;;;5008856;28;20394;-75
2023/12/02 06:53:16;;;;;;;12.50;8.07;;;2.80;77.60;;;;;;5054342;28;20058;-75
2023/12/02 06:55:42;;;;;;;11.23;7.40;;;2.70;77.50;;;;;;5025394;28;20095;-75
2023/12/02 06:58:08;;;;;;;12.27;7.97;;;2.70;77.50;;;;;;5028073;28;20044;-75
2023/12/02 07:00:35;;;;;;;13.38;8.63;;;2.70;77.60;;;;;;5027953;28;20025;-75
2023/12/02 07:03:01;;;;;;;11.90;7.65;;;2.70;77.60;;;;;;5028178;28;20041;-75
2023/12/02 07:05:26;;;;;;;12.15;8.23;;;2.70;77.80;;;;;;5039525;28;20125;-75
2023/12/02 07:07:52;;;;;;;11.20;7.40;;;2.70;77.60;;;;;;5020351;28;20037;-75
2023/12/02 07:10:18;;;;;;;11.60;8.00;;;2.70;77.60;;;;;;5032600;28;20083;-75
2023/12/02 07:12:44;;;;;;;11.98;7.90;;;2.70;77.50;;;;;;5034093;28;20060;-74
2023/12/02 07:15:10;;;;;;;14.82;9.48;;;2.70;77.60;;;;;;5025823;28;20034;-75
2023/12/02 07:17:36;;;;;;;13.48;8.75;;;2.70;77.60;;;;;;5027965;28;20105;-75
2023/12/02 07:20:02;;;;;;;12.43;7.97;;;2.70;77.60;;;;;;5030931;28;20073;-74
2023/12/02 07:22:28;;;;;;;13.07;8.60;;;2.70;78.20;;;;;;5024778;28;20128;-72
2023/12/02 07:24:54;;;;;;;12.55;8.50;;;2.70;77.60;;;;;;5032469;28;20124;-74
2023/12/02 07:27:20;;;;;;;12.77;8.48;;;2.70;77.60;;;;;;5032610;28;20488;-74
2023/12/02 07:29:45;;;;;;;13.35;8.55;;;2.70;77.60;;;;;;5025009;28;20048;-74
2023/12/02 07:32:11;;;;;;;12.65;8.18;;;2.70;77.60;;;;;;5017128;28;20371;-74
2023/12/02 07:34:37;;;;;;;11.88;7.80;;;2.70;77.60;;;;;;5030464;28;20072;-76
2023/12/02 07:37:03;;;;;;;12.75;8.73;;;2.70;77.60;;;;;;5034418;28;20029;-75
2023/12/02 07:39:29;;;;;;;12.63;7.88;;;2.70;77.60;;;;;;5022289;28;20030;-76
2023/12/02 07:41:55;;;;;;;12.20;7.68;;;2.70;77.60;;;;;;5034421;28;20084;-76
2023/12/02 07:44:20;;;;;;;12.98;8.55;;;2.70;77.60;;;;;;5000709;28;20033;-76
2023/12/02 07:46:46;;;;;;;12.55;7.95;;;2.70;77.60;;;;;;5031391;28;20056;-74
2023/12/02 07:49:12;;;;;;;14.85;8.70;;;2.70;77.60;;;;;;5016667;28;20587;-74
2023/12/02 07:51:37;;;;;;;12.35;8.35;;;2.70;77.50;;;;;;5026290;28;20037;-75
2023/12/02 07:54:03;;;;;;;12.27;8.57;;;2.70;77.50;;;;;;5015848;28;20053;-75
2023/12/02 07:56:29;;;;;;;12.82;8.60;;;2.70;77.50;;;;;;5032814;28;20458;-75
2023/12/02 07:58:55;;;;;;;12.10;7.78;;;2.70;77.50;;;;;;5020321;28;20052;-75
2023/12/02 08:01:21;;;;;;;11.85;8.15;;;2.70;77.60;;;;;;5052308;28;20526;-75
2023/12/02 08:03:47;;;;;;;12.38;8.23;;;2.70;77.60;;;;;;5057133;28;20137;-75
2023/12/02 08:06:13;;;;;;;11.40;7.68;;;2.70;77.60;;;;;;5016711;28;20128;-75
2023/12/02 08:08:38;;;;;;;11.68;7.90;;;2.80;77.60;;;;;;5031528;28;20030;-75
2023/12/02 08:11:05;;;;;;;13.70;8.40;;;2.80;77.60;;;;;;5028277;28;20526;-75
2023/12/02 08:13:31;;;;;;;11.50;7.97;;;2.70;78.10;;;;;;5048492;28;20029;-75
2023/12/02 08:15:57;;;;;;;12.25;8.15;;;2.80;77.60;;;;;;5029013;28;20033;-75
2023/12/02 08:18:23;;;;;;;12.43;8.25;;;2.80;77.60;;;;;;5013771;28;20026;-75
2023/12/02 08:20:48;;;;;;;11.63;7.38;;;2.80;77.60;;;;;;5000296;28;20124;-76
2023/12/02 08:23:15;;;;;;;12.07;7.50;;;2.80;77.60;;;;;;5032705;28;20029;-75
2023/12/02 08:25:41;;;;;;;13.55;8.20;;;2.80;77.60;;;;;;5033688;28;20029;-75
2023/12/02 08:28:07;;;;;;;13.05;9.00;;;2.80;77.60;;;;;;5013461;28;20153;-75
2023/12/02 08:30:33;;;;;;;12.75;8.43;;;2.70;77.50;;;;;;5047917;28;20105;-75
2023/12/02 08:32:58;;;;;;;12.43;7.88;;;2.80;77.50;;;;;;4999872;28;20030;-75
2023/12/02 08:35:24;;;;;;;11.20;7.57;;;2.80;77.60;;;;;;5033984;28;20037;-75
2023/12/02 08:37:50;;;;;;;12.10;7.85;;;2.80;77.50;;;;;;5016503;28;20477;-75
2023/12/02 08:40:16;;;;;;;12.65;8.40;;;2.80;77.50;;;;;;5034135;28;20362;-76
2023/12/02 08:42:41;;;;;;;13.13;8.73;;;2.80;77.50;;;;;;5023948;28;20359;-75
2023/12/02 08:45:07;;;;;;;13.48;8.25;;;2.80;77.60;;;;;;5029570;28;20034;-75
2023/12/02 08:47:33;;;;;;;12.48;8.15;;;2.80;77.50;;;;;;5024189;28;20033;-74
2023/12/02 08:49:59;;;;;;;11.43;8.32;;;2.80;77.50;;;;;;5030987;28;20386;-75
2023/12/02 08:52:25;;;;;;;12.30;8.35;;;2.80;77.50;;;;;;5030596;28;20164;-75
2023/12/02 08:54:50;;;;;;;11.07;7.32;;;2.80;77.50;;;;;;5025481;28;20516;-75
2023/12/02 08:57:16;;;;;;;13.25;8.75;;;2.80;77.60;;;;;;5033377;28;20589;-75
2023/12/02 08:59:42;;;;;;;12.50;8.52;;;2.80;77.50;;;;;;5032788;28;20491;-75
2023/12/02 09:02:08;;;;;;;11.70;8.00;;;2.90;77.60;;;;;;5027317;28;20026;-75
2023/12/02 09:04:34;;;;;;;11.57;7.60;;;2.80;77.50;;;;;;5015875;28;20399;-75
2023/12/02 09:07:00;;;;;;;11.18;8.30;;;2.80;77.50;;;;;;5023862;28;20034;-74
2023/12/02 09:09:26;;;;;;;10.60;7.57;;;2.90;77.60;;;;;;5032192;28;20048;-75
2023/12/02 09:11:52;;;;;;;12.13;8.23;;;2.90;77.50;;;;;;5016266;28;20052;-75
2023/12/02 09:14:17;;;;;;;11.98;8.43;;;2.90;77.50;;;;;;5015172;28;20476;-75
2023/12/02 09:16:47;;;;;;;11.40;7.43;;;2.90;77.50;;;;;;5033902;28;20091;-75
2023/12/02 09:19:33;;;;;;;12.55;8.60;;;2.90;77.50;;;;;;5028031;28;20509;-78
2023/12/02 09:21:59;;;;;;;12.35;7.95;;;2.90;77.60;;;;;;5031131;28;20033;-75
2023/12/02 09:24:40;;;;;;;10.98;7.82;;;2.90;77.50;;;;;;5028738;28;20064;-75
2023/12/02 09:27:07;;;;;;;11.38;7.47;;;3.00;77.60;;;;;;5023975;28;20096;-75
2023/12/02 09:29:43;;;;;;;11.25;8.00;;;2.90;77.50;;;;;;5021376;28;20389;-74
2023/12/02 09:32:24;;;;;;;12.60;8.50;;;3.00;77.60;;;;;;5029158;28;20113;-75
2023/12/02 09:35:00;;;;;;;12.35;8.20;;;3.00;77.50;;;;;;5021305;28;20113;-75
2023/12/02 09:37:51;;;;;;;10.40;7.50;;;3.00;77.50;;;;;;5026438;28;20090;-75
2023/12/02 09:40:19;;;;;;;12.57;7.80;;;3.00;77.60;;;;;;5026738;28;20032;-75
2023/12/02 09:42:53;;;;;;;11.93;8.18;;;3.00;77.40;;;;;;5027095;28;20029;-74
2023/12/02 09:45:22;;;;;;;13.00;8.82;;;3.10;77.50;;;;;;5026039;28;20474;-75
2023/12/02 09:48:13;;;;;;;12.02;8.10;;;3.10;77.50;;;;;;5029465;28;20109;-75
2023/12/02 09:50:59;;;;;;;12.80;8.43;;;3.10;77.50;;;;;;5031009;28;20417;-75
2023/12/02 09:53:50;;;;;;;11.68;8.02;;;3.10;77.50;;;;;;5025706;28;20486;-74
2023/12/02 09:56:30;;;;;;;11.63;7.32;;;3.10;77.50;;;;;;5010762;28;20072;-76
2023/12/02 09:59:42;;;;;;;12.13;8.32;;;3.10;77.50;;;;;;5029226;28;20033;-74
2023/12/02 10:02:36;;;;;;;10.30;7.10;;;3.10;77.60;;;;;;5014507;28;20087;-74
2023/12/02 10:05:12;;;;;;;11.73;7.53;;;3.10;77.50;;;;;;5022119;28;20037;-74
2023/12/02 10:07:53;;;;;;;13.05;8.25;;;3.10;77.50;;;;;;5020637;28;20041;-73
2023/12/02 10:10:25;;;;;;;12.40;8.35;;;3.10;77.50;;;;;;5025788;28;20143;-74
2023/12/02 10:13:14;;;;;;;12.98;8.43;;;3.20;77.60;;;;;;5020755;28;20193;-74
2023/12/02 10:15:42;;;;;;;14.02;8.85;;;3.20;77.60;;;;;;5023298;28;20087;-74
2023/12/02 10:18:17;;;;;;;11.93;8.35;;;3.10;77.50;;;;;;5027089;28;20163;-75
2023/12/02 10:20:44;;;;;;;13.82;8.95;;;3.20;77.60;;;;;;5023280;28;20026;-76
2023/12/02 10:23:21;;;;;;;13.65;8.45;;;3.20;77.60;;;;;;5026597;28;20388;-76
2023/12/02 10:26:02;;;;;;;13.30;8.75;;;3.20;77.60;;;;;;5023910;28;20037;-76
2023/12/02 10:28:39;;;;;;;12.85;8.75;;;3.20;77.60;;;;;;5029460;28;20021;-75
2023/12/02 10:31:06;;;;;;;14.05;8.68;;;3.30;77.60;;;;;;5034901;28;20033;-75
2023/12/02 10:33:45;;;;;;;13.30;8.85;;;3.30;77.60;;;;;;5033774;28;20029;-75
2023/12/02 10:36:12;;;;;;;13.55;8.75;;;3.30;77.70;;;;;;5032093;28;20095;-75
2023/12/02 10:38:53;;;;;;;14.07;8.80;;;3.30;77.60;;;;;;5025864;28;20030;-76
2023/12/02 10:41:27;;;;;;;12.20;7.93;;;3.30;77.60;;;;;;5028210;28;20032;-76
2023/12/02 10:44:06;;;;;;;12.75;8.73;;;3.30;77.60;;;;;;5028916;28;20909;-74
2023/12/02 10:46:33;;;;;;;12.30;8.20;;;3.30;77.60;;;;;;5029927;28;20029;-75
2023/12/02 10:49:01;;;;;;;12.07;8.18;;;3.40;77.60;;;;;;5035812;28;20105;-74
2023/12/02 10:51:27;;;;;;;13.82;9.00;;;3.40;77.60;;;;;;5025335;28;20038;-74
2023/12/02 10:53:59;;;;;;;12.55;8.77;;;3.40;77.60;;;;;;5028870;28;20128;-75
2023/12/02 10:56:30;;;;;;;14.27;9.02;;;3.40;77.60;;;;;;5028300;28;20083;-75
2023/12/02 10:58:58;;;;;;;13.25;8.80;;;3.50;77.60;;;;;;5031023;28;20065;-74
2023/12/02 11:01:58;;;;;;;12.35;8.38;;;3.40;77.60;;;;;;5021649;28;20068;-74
2023/12/02 11:04:25;;;;;;;12.52;8.35;;;3.50;77.70;;;;;;5019065;28;20025;-74
2023/12/02 11:06:57;;;;;;;13.32;8.60;;;3.50;77.60;;;;;;5030344;28;20035;-75
2023/12/02 11:09:48;;;;;;;13.65;9.00;;;3.50;77.60;;;;;;5015108;28;20040;-74
2023/12/02 11:12:21;;;;;;;13.07;8.73;;;3.50;77.60;;;;;;5026075;28;20034;-74
2023/12/02 11:14:50;;;;;;;12.10;8.05;;;3.50;77.60;;;;;;5009467;28;20067;-74
2023/12/02 11:17:29;;;;;;;13.23;8.68;;;3.60;77.60;;;;;;5030155;28;20029;-74
2023/12/02 11:20:22;;;;;;;12.82;8.20;;;3.60;77.60;;;;;;5022318;28;20458;-74
2023/12/02 11:23:06;;;;;;;12.65;8.55;;;3.60;77.60;;;;;;5038576;28;20050;-74
2023/12/02 11:25:53;;;;;;;13.25;8.43;;;3.60;77.60;;;;;;5030059;28;20079;-74
2023/12/02 11:28:29;;;;;;;13.35;8.98;;;3.60;77.60;;;;;;5030269;28;20060;-74
2023/12/02 11:31:01;;;;;;;12.63;8.45;;;3.60;77.60;;;;;;5024120;28;20493;-74
2023/12/02 11:33:45;;;;;;;15.18;9.82;;;3.60;77.60;;;;;;5023305;28;20026;-75
2023/12/02 11:36:23;;;;;;;12.95;8.65;;;3.60;77.60;;;;;;5021574;28;20474;-76
2023/12/02 11:39:17;;;;;;;14.27;8.90;;;3.70;77.70;;;;;;5009879;28;20413;-74
2023/12/02 11:41:59;;;;;;;11.57;7.68;;;3.70;77.70;;;;;;5011437;28;20387;-73
2023/12/02 11:45:02;;;;;;;12.60;8.70;;;3.70;77.60;;;;;;5023318;28;20053;-76
2023/12/02 11:47:45;;;;;;;13.77;8.57;;;3.70;77.60;;;;;;5021317;28;20119;-73
2023/12/02 11:50:24;;;;;;;12.85;8.20;;;3.70;77.60;;;;;;5029316;28;20056;-74
2023/12/02 11:52:58;;;;;;;13.02;8.43;;;3.70;77.60;;;;;;5024638;28;20352;-73
2023/12/02 11:55:43;;;;;;;13.02;9.00;;;3.80;77.70;;;;;;5026335;28;20129;-73
2023/12/02 11:58:20;;;;;;;13.13;9.18;;;3.80;78.30;;;;;;5030439;28;20091;-73
2023/12/02 12:01:16;;;;;;;13.18;8.40;;;3.80;77.60;;;;;;5046749;28;20075;-73
2023/12/02 12:04:02;;;;;;;12.82;8.50;;;3.80;77.70;;;;;;5036071;28;20029;-73
2023/12/02 12:06:30;;;;;;;13.98;9.15;;;3.90;77.70;;;;;;5055998;28;20026;-73
2023/12/02 12:09:12;;;;;;;13.32;8.70;;;3.90;77.60;;;;;;5026181;28;20025;-73
2023/12/02 12:11:40;;;;;;;12.70;8.55;;;3.90;77.70;;;;;;5047239;28;20120;-73
2023/12/02 12:14:07;;;;;;;12.52;8.20;;;3.90;77.60;;;;;;5029506;28;20095;-73
2023/12/02 12:16:33;;;;;;;12.38;8.00;;;4.00;78.30;;;;;;5042255;28;20083;-73
2023/12/02 12:18:59;;;;;;;14.18;9.43;;;4.00;77.70;;;;;;5016914;28;20533;-74
2023/12/02 12:21:24;;;;;;;12.63;8.07;;;3.90;77.60;;;;;;5029489;28;20025;-73
2023/12/02 12:23:50;;;;;;;13.93;8.68;;;4.00;77.60;;;;;;5023803;28;20481;-72
2023/12/02 12:26:16;;;;;;;13.57;8.88;;;4.00;77.60;;;;;;5024071;28;20121;-73
2023/12/02 12:28:41;;;;;;;12.82;8.52;;;4.00;77.60;;;;;;5016500;28;20040;-73
2023/12/02 12:31:09;;;;;;;14.88;9.13;;;4.00;77.60;;;;;;5022333;28;20176;-73
2023/12/02 12:33:38;;;;;;;12.05;7.75;;;4.10;77.60;;;;;;5025646;28;20030;-73
2023/12/02 12:36:05;;;;;;;12.93;9.43;;;4.10;77.60;;;;;;5028752;28;20029;-73
2023/12/02 12:38:31;;;;;;;13.68;9.20;;;4.10;77.60;;;;;;5025670;28;20030;-74
2023/12/02 12:40:56;;;;;;;13.40;9.00;;;4.10;77.60;;;;;;5016530;28;20030;-73
2023/12/02 12:43:23;;;;;;;14.15;9.80;;;4.10;77.60;;;;;;5032551;28;20462;-73
2023/12/02 12:45:53;;;;;;;14.60;9.35;;;4.20;77.60;;;;;;5033893;28;20555;-73
2023/12/02 12:48:25;;;;;;;13.07;8.80;;;4.20;77.60;;;;;;5057312;28;20034;-73
2023/12/02 12:50:55;;;;;;;13.48;8.70;;;4.20;77.60;;;;;;5031989;28;20029;-73
2023/12/02 12:53:29;;;;;;;13.30;8.48;;;4.20;77.60;;;;;;5027939;28;20473;-73
2023/12/02 12:56:10;;;;;;;13.65;8.82;;;4.20;77.60;;;;;;5033376;28;20037;-74